sensor_id;sensor_type;location;lat;lon;timestamp;P1;durP1;ratioP1;P2;durP2;ratioP2
65715;SDS011;63484;52.054;8.518;2022-11-21T00:01:58;24.67;;;10.63;;
65715;SDS011;63484;52.054;8.518;2022-11-21T00:06:58;24.60;;;10.60;;
65715;SDS011;63484;52.054;8.518;2022-11-21T00:11:59;21.47;;;9.37;;
65715;SDS011;63484;52.054;8.518;2022-11-21T00:16:59;22.93;;;9.50;;
65715;SDS011;63484;52.054;8.518;2022-11-21T00:21:59;21.03;;;9.27;;
65715;SDS011;63484;52.054;8.518;2022-11-21T00:26:59;24.07;;;9.87;;
65715;SDS011;63484;52.054;8.518;2022-11-21T00:32:00;24.43;;;10.43;;
65715;SDS011;63484;52.054;8.518;2022-11-21T00:37:00;28.53;;;11.23;;
65715;SDS011;63484;52.054;8.518;2022-11-21T00:42:00;24.07;;;10.23;;
65715;SDS011;63484;52.054;8.518;2022-11-21T00:47:01;27.97;;;11.30;;
65715;SDS011;63484;52.054;8.518;2022-11-21T00:52:01;26.43;;;10.73;;
65715;SDS011;63484;52.054;8.518;2022-11-21T00:57:02;26.83;;;11.17;;
65715;SDS011;63484;52.054;8.518;2022-11-21T01:02:02;24.10;;;10.53;;
65715;SDS011;63484;52.054;8.518;2022-11-21T01:07:04;29.93;;;11.87;;
65715;SDS011;63484;52.054;8.518;2022-11-21T01:12:04;25.90;;;10.87;;
65715;SDS011;63484;52.054;8.518;2022-11-21T01:17:05;27.23;;;10.90;;
65715;SDS011;63484;52.054;8.518;2022-11-21T01:22:05;23.80;;;10.47;;
65715;SDS011;63484;52.054;8.518;2022-11-21T01:27:05;22.73;;;9.70;;
65715;SDS011;63484;52.054;8.518;2022-11-21T01:32:06;22.40;;;9.67;;
65715;SDS011;63484;52.054;8.518;2022-11-21T01:37:06;25.20;;;10.77;;
65715;SDS011;63484;52.054;8.518;2022-11-21T01:42:07;21.83;;;10.07;;
65715;SDS011;63484;52.054;8.518;2022-11-21T01:47:11;21.00;;;9.30;;
65715;SDS011;63484;52.054;8.518;2022-11-21T01:57:30;24.70;;;10.53;;
65715;SDS011;63484;52.054;8.518;2022-11-21T02:02:40;22.50;;;10.47;;
65715;SDS011;63484;52.054;8.518;2022-11-21T02:07:45;21.80;;;9.67;;
65715;SDS011;63484;52.054;8.518;2022-11-21T02:12:51;20.63;;;9.17;;
65715;SDS011;63484;52.054;8.518;2022-11-21T02:17:53;22.97;;;9.50;;
65715;SDS011;63484;52.054;8.518;2022-11-21T02:22:59;21.67;;;9.90;;
65715;SDS011;63484;52.054;8.518;2022-11-21T02:28:18;25.02;;;10.20;;
65715;SDS011;63484;52.054;8.518;2022-11-21T02:33:20;21.40;;;9.83;;
65715;SDS011;63484;52.054;8.518;2022-11-21T02:38:30;20.73;;;9.70;;
65715;SDS011;63484;52.054;8.518;2022-11-21T02:43:56;22.60;;;9.75;;
65715;SDS011;63484;52.054;8.518;2022-11-21T02:48:58;23.40;;;9.40;;
65715;SDS011;63484;52.054;8.518;2022-11-21T02:53:58;21.37;;;9.97;;
65715;SDS011;63484;52.054;8.518;2022-11-21T02:58:58;23.33;;;10.23;;
65715;SDS011;63484;52.054;8.518;2022-11-21T03:03:59;23.43;;;9.93;;
65715;SDS011;63484;52.054;8.518;2022-11-21T03:08:59;24.37;;;10.50;;
65715;SDS011;63484;52.054;8.518;2022-11-21T03:13:59;24.33;;;11.07;;
65715;SDS011;63484;52.054;8.518;2022-11-21T03:18:59;24.13;;;10.57;;
65715;SDS011;63484;52.054;8.518;2022-11-21T03:24:00;23.97;;;9.80;;
65715;SDS011;63484;52.054;8.518;2022-11-21T03:29:00;22.93;;;10.23;;
65715;SDS011;63484;52.054;8.518;2022-11-21T03:34:00;22.77;;;10.27;;
65715;SDS011;63484;52.054;8.518;2022-11-21T03:39:01;21.83;;;10.37;;
65715;SDS011;63484;52.054;8.518;2022-11-21T03:44:03;23.73;;;10.57;;
65715;SDS011;63484;52.054;8.518;2022-11-21T03:49:08;23.80;;;10.73;;
65715;SDS011;63484;52.054;8.518;2022-11-21T03:54:09;21.83;;;9.50;;
65715;SDS011;63484;52.054;8.518;2022-11-21T03:59:09;19.80;;;9.57;;
65715;SDS011;63484;52.054;8.518;2022-11-21T04:04:10;22.67;;;10.03;;
65715;SDS011;63484;52.054;8.518;2022-11-21T04:09:10;23.13;;;10.63;;
65715;SDS011;63484;52.054;8.518;2022-11-21T04:14:10;23.27;;;10.33;;
65715;SDS011;63484;52.054;8.518;2022-11-21T04:19:11;21.93;;;9.70;;
65715;SDS011;63484;52.054;8.518;2022-11-21T04:24:11;21.07;;;10.03;;
65715;SDS011;63484;52.054;8.518;2022-11-21T04:29:11;21.63;;;9.70;;
65715;SDS011;63484;52.054;8.518;2022-11-21T04:34:12;22.20;;;9.37;;
65715;SDS011;63484;52.054;8.518;2022-11-21T04:39:12;21.87;;;10.37;;
65715;SDS011;63484;52.054;8.518;2022-11-21T04:44:12;20.23;;;9.87;;
65715;SDS011;63484;52.054;8.518;2022-11-21T04:49:13;20.83;;;9.77;;
65715;SDS011;63484;52.054;8.518;2022-11-21T04:54:13;20.67;;;9.13;;
65715;SDS011;63484;52.054;8.518;2022-11-21T04:59:14;19.93;;;9.47;;
65715;SDS011;63484;52.054;8.518;2022-11-21T05:04:14;23.60;;;9.97;;
65715;SDS011;63484;52.054;8.518;2022-11-21T05:09:14;20.27;;;9.63;;
65715;SDS011;63484;52.054;8.518;2022-11-21T05:14:15;25.47;;;10.63;;
65715;SDS011;63484;52.054;8.518;2022-11-21T05:19:15;22.80;;;10.87;;
65715;SDS011;63484;52.054;8.518;2022-11-21T05:24:15;22.57;;;9.67;;
65715;SDS011;63484;52.054;8.518;2022-11-21T05:29:16;24.03;;;10.73;;
65715;SDS011;63484;52.054;8.518;2022-11-21T05:34:16;23.27;;;10.97;;
65715;SDS011;63484;52.054;8.518;2022-11-21T05:39:16;24.73;;;11.27;;
65715;SDS011;63484;52.054;8.518;2022-11-21T05:44:17;22.43;;;10.20;;
65715;SDS011;63484;52.054;8.518;2022-11-21T05:49:18;24.07;;;10.53;;
65715;SDS011;63484;52.054;8.518;2022-11-21T05:54:18;25.20;;;11.30;;
65715;SDS011;63484;52.054;8.518;2022-11-21T05:59:18;23.47;;;10.07;;
65715;SDS011;63484;52.054;8.518;2022-11-21T06:04:19;24.03;;;10.47;;
65715;SDS011;63484;52.054;8.518;2022-11-21T06:09:19;25.10;;;10.63;;
65715;SDS011;63484;52.054;8.518;2022-11-21T06:14:19;27.40;;;11.03;;
65715;SDS011;63484;52.054;8.518;2022-11-21T06:19:20;23.10;;;10.47;;
65715;SDS011;63484;52.054;8.518;2022-11-21T06:24:20;21.90;;;9.50;;
65715;SDS011;63484;52.054;8.518;2022-11-21T06:29:20;22.57;;;10.03;;
65715;SDS011;63484;52.054;8.518;2022-11-21T06:34:21;28.17;;;12.13;;
65715;SDS011;63484;52.054;8.518;2022-11-21T06:39:21;28.80;;;11.77;;
65715;SDS011;63484;52.054;8.518;2022-11-21T06:44:21;27.87;;;12.17;;
65715;SDS011;63484;52.054;8.518;2022-11-21T06:49:22;22.70;;;10.27;;
65715;SDS011;63484;52.054;8.518;2022-11-21T06:54:22;23.37;;;10.17;;
65715;SDS011;63484;52.054;8.518;2022-11-21T06:59:23;29.50;;;10.73;;
65715;SDS011;63484;52.054;8.518;2022-11-21T07:04:23;25.23;;;10.47;;
65715;SDS011;63484;52.054;8.518;2022-11-21T07:09:24;32.73;;;14.20;;
65715;SDS011;63484;52.054;8.518;2022-11-21T07:14:24;37.83;;;14.23;;
65715;SDS011;63484;52.054;8.518;2022-11-21T07:19:24;24.63;;;11.93;;
65715;SDS011;63484;52.054;8.518;2022-11-21T07:24:25;25.53;;;12.13;;
65715;SDS011;63484;52.054;8.518;2022-11-21T07:29:25;28.73;;;12.30;;
65715;SDS011;63484;52.054;8.518;2022-11-21T07:34:25;25.00;;;10.87;;
65715;SDS011;63484;52.054;8.518;2022-11-21T07:39:25;26.33;;;12.07;;
65715;SDS011;63484;52.054;8.518;2022-11-21T07:44:26;27.90;;;11.97;;
65715;SDS011;63484;52.054;8.518;2022-11-21T07:49:26;25.30;;;12.27;;
65715;SDS011;63484;52.054;8.518;2022-11-21T07:54:27;27.83;;;11.70;;
65715;SDS011;63484;52.054;8.518;2022-11-21T07:59:27;21.83;;;10.70;;
65715;SDS011;63484;52.054;8.518;2022-11-21T08:04:27;25.17;;;12.23;;
65715;SDS011;63484;52.054;8.518;2022-11-21T08:09:28;22.50;;;10.27;;
65715;SDS011;63484;52.054;8.518;2022-11-21T08:14:28;20.53;;;10.13;;
65715;SDS011;63484;52.054;8.518;2022-11-21T08:19:29;21.48;;;10.00;;
65715;SDS011;63484;52.054;8.518;2022-11-21T08:24:29;25.27;;;11.60;;
65715;SDS011;63484;52.054;8.518;2022-11-21T08:29:29;21.48;;;10.82;;
65715;SDS011;63484;52.054;8.518;2022-11-21T08:34:30;24.17;;;12.68;;
65715;SDS011;63484;52.054;8.518;2022-11-21T08:39:31;27.40;;;13.05;;
65715;SDS011;63484;52.054;8.518;2022-11-21T08:44:32;30.20;;;13.10;;
65715;SDS011;63484;52.054;8.518;2022-11-21T08:49:33;39.90;;;15.07;;
65715;SDS011;63484;52.054;8.518;2022-11-21T08:54:34;36.65;;;15.07;;
65715;SDS011;63484;52.054;8.518;2022-11-21T08:59:35;36.22;;;13.50;;
65715;SDS011;63484;52.054;8.518;2022-11-21T09:04:35;32.92;;;14.15;;
65715;SDS011;63484;52.054;8.518;2022-11-21T09:09:36;35.47;;;13.67;;
65715;SDS011;63484;52.054;8.518;2022-11-21T09:14:36;30.47;;;12.90;;
65715;SDS011;63484;52.054;8.518;2022-11-21T09:19:55;27.67;;;11.80;;
65715;SDS011;63484;52.054;8.518;2022-11-21T09:24:55;28.13;;;11.60;;
65715;SDS011;63484;52.054;8.518;2022-11-21T09:29:56;24.83;;;10.40;;
65715;SDS011;63484;52.054;8.518;2022-11-21T09:34:56;25.07;;;10.87;;
65715;SDS011;63484;52.054;8.518;2022-11-21T09:39:56;28.50;;;12.15;;
65715;SDS011;63484;52.054;8.518;2022-11-21T09:44:58;25.90;;;11.23;;
65715;SDS011;63484;52.054;8.518;2022-11-21T09:55:28;24.50;;;10.73;;
65715;SDS011;63484;52.054;8.518;2022-11-21T10:00:36;24.47;;;10.90;;
65715;SDS011;63484;52.054;8.518;2022-11-21T10:05:38;25.07;;;10.53;;
65715;SDS011;63484;52.054;8.518;2022-11-21T10:27:00;29.70;;;11.10;;
65715;SDS011;63484;52.054;8.518;2022-11-21T10:32:21;22.17;;;10.00;;
65715;SDS011;63484;52.054;8.518;2022-11-21T10:37:35;24.45;;;9.93;;
65715;SDS011;63484;52.054;8.518;2022-11-21T10:42:39;24.35;;;9.65;;
65715;SDS011;63484;52.054;8.518;2022-11-21T10:47:51;24.17;;;9.90;;
65715;SDS011;63484;52.054;8.518;2022-11-21T10:53:00;26.20;;;9.47;;
65715;SDS011;63484;52.054;8.518;2022-11-21T10:58:45;23.93;;;9.60;;
65715;SDS011;63484;52.054;8.518;2022-11-21T11:03:47;22.40;;;9.77;;
65715;SDS011;63484;52.054;8.518;2022-11-21T11:09:03;19.77;;;9.35;;
65715;SDS011;63484;52.054;8.518;2022-11-21T11:14:05;23.55;;;9.82;;
65715;SDS011;63484;52.054;8.518;2022-11-21T11:29:17;23.32;;;10.28;;
65715;SDS011;63484;52.054;8.518;2022-11-21T11:34:17;21.58;;;9.10;;
65715;SDS011;63484;52.054;8.518;2022-11-21T11:50:26;21.60;;;8.25;;
65715;SDS011;63484;52.054;8.518;2022-11-21T11:55:36;20.63;;;7.75;;
65715;SDS011;63484;52.054;8.518;2022-11-21T12:00:47;22.33;;;7.83;;
65715;SDS011;63484;52.054;8.518;2022-11-21T12:11:06;18.23;;;8.57;;
65715;SDS011;63484;52.054;8.518;2022-11-21T12:16:31;22.02;;;8.38;;
65715;SDS011;63484;52.054;8.518;2022-11-21T12:21:35;21.45;;;8.55;;
65715;SDS011;63484;52.054;8.518;2022-11-21T12:38:07;19.33;;;8.23;;
65715;SDS011;63484;52.054;8.518;2022-11-21T12:43:18;20.33;;;9.05;;
65715;SDS011;63484;52.054;8.518;2022-11-21T12:48:45;19.95;;;8.07;;
65715;SDS011;63484;52.054;8.518;2022-11-21T12:59:41;19.45;;;9.07;;
65715;SDS011;63484;52.054;8.518;2022-11-21T13:04:48;22.03;;;9.97;;
65715;SDS011;63484;52.054;8.518;2022-11-21T13:09:50;22.03;;;9.77;;
65715;SDS011;63484;52.054;8.518;2022-11-21T13:14:56;23.33;;;9.87;;
65715;SDS011;63484;52.054;8.518;2022-11-21T13:20:12;20.87;;;8.80;;
65715;SDS011;63484;52.054;8.518;2022-11-21T13:30:30;21.88;;;8.63;;
65715;SDS011;63484;52.054;8.518;2022-11-21T13:36:13;26.73;;;11.27;;
65715;SDS011;63484;52.054;8.518;2022-11-21T13:40:55;22.33;;;9.73;;
65715;SDS011;63484;52.054;8.518;2022-11-21T13:46:55;23.03;;;9.03;;
65715;SDS011;63484;52.054;8.518;2022-11-21T13:51:52;22.37;;;9.53;;
65715;SDS011;63484;52.054;8.518;2022-11-21T14:12:30;22.20;;;9.90;;
65715;SDS011;63484;52.054;8.518;2022-11-21T14:22:53;23.87;;;10.37;;
65715;SDS011;63484;52.054;8.518;2022-11-21T14:28:07;23.47;;;9.83;;
65715;SDS011;63484;52.054;8.518;2022-11-21T14:33:23;23.67;;;9.87;;
65715;SDS011;63484;52.054;8.518;2022-11-21T14:38:27;28.27;;;10.37;;
65715;SDS011;63484;52.054;8.518;2022-11-21T14:43:30;24.33;;;10.70;;
65715;SDS011;63484;52.054;8.518;2022-11-21T14:48:32;24.10;;;9.97;;
65715;SDS011;63484;52.054;8.518;2022-11-21T14:53:32;24.43;;;9.57;;
65715;SDS011;63484;52.054;8.518;2022-11-21T14:58:32;22.40;;;9.70;;
65715;SDS011;63484;52.054;8.518;2022-11-21T15:03:33;26.20;;;9.93;;
65715;SDS011;63484;52.054;8.518;2022-11-21T15:08:35;25.27;;;10.40;;
65715;SDS011;63484;52.054;8.518;2022-11-21T15:13:36;28.30;;;11.53;;
65715;SDS011;63484;52.054;8.518;2022-11-21T15:18:38;23.10;;;10.50;;
65715;SDS011;63484;52.054;8.518;2022-11-21T15:23:41;22.43;;;10.27;;
65715;SDS011;63484;52.054;8.518;2022-11-21T15:28:52;28.47;;;12.13;;
65715;SDS011;63484;52.054;8.518;2022-11-21T15:39:15;27.23;;;11.80;;
65715;SDS011;63484;52.054;8.518;2022-11-21T15:44:21;30.53;;;12.17;;
65715;SDS011;63484;52.054;8.518;2022-11-21T15:49:22;31.70;;;13.23;;
65715;SDS011;63484;52.054;8.518;2022-11-21T15:54:23;32.87;;;12.60;;
65715;SDS011;63484;52.054;8.518;2022-11-21T15:59:24;27.97;;;12.20;;
65715;SDS011;63484;52.054;8.518;2022-11-21T16:04:24;38.23;;;14.10;;
65715;SDS011;63484;52.054;8.518;2022-11-21T16:09:24;35.17;;;12.73;;
65715;SDS011;63484;52.054;8.518;2022-11-21T16:14:25;35.63;;;12.83;;
65715;SDS011;63484;52.054;8.518;2022-11-21T16:19:25;31.33;;;11.83;;
65715;SDS011;63484;52.054;8.518;2022-11-21T16:24:25;33.57;;;13.23;;
65715;SDS011;63484;52.054;8.518;2022-11-21T16:29:26;37.07;;;14.07;;
65715;SDS011;63484;52.054;8.518;2022-11-21T16:34:26;32.07;;;13.53;;
65715;SDS011;63484;52.054;8.518;2022-11-21T16:39:27;42.07;;;14.60;;
65715;SDS011;63484;52.054;8.518;2022-11-21T16:44:28;36.20;;;14.67;;
65715;SDS011;63484;52.054;8.518;2022-11-21T16:49:29;35.97;;;13.67;;
65715;SDS011;63484;52.054;8.518;2022-11-21T16:54:29;37.17;;;13.90;;
65715;SDS011;63484;52.054;8.518;2022-11-21T16:59:30;32.20;;;12.70;;
65715;SDS011;63484;52.054;8.518;2022-11-21T17:04:31;33.17;;;13.53;;
65715;SDS011;63484;52.054;8.518;2022-11-21T17:09:31;29.27;;;12.43;;
65715;SDS011;63484;52.054;8.518;2022-11-21T17:14:31;29.70;;;12.57;;
65715;SDS011;63484;52.054;8.518;2022-11-21T17:19:32;32.17;;;12.40;;
65715;SDS011;63484;52.054;8.518;2022-11-21T17:24:32;33.90;;;13.40;;
65715;SDS011;63484;52.054;8.518;2022-11-21T17:29:33;36.17;;;14.87;;
65715;SDS011;63484;52.054;8.518;2022-11-21T17:34:33;37.43;;;14.23;;
65715;SDS011;63484;52.054;8.518;2022-11-21T17:39:33;39.93;;;14.80;;
65715;SDS011;63484;52.054;8.518;2022-11-21T17:44:34;35.07;;;14.17;;
65715;SDS011;63484;52.054;8.518;2022-11-21T17:49:34;34.63;;;14.17;;
65715;SDS011;63484;52.054;8.518;2022-11-21T17:54:36;33.20;;;13.17;;
65715;SDS011;63484;52.054;8.518;2022-11-21T17:59:36;39.10;;;13.97;;
65715;SDS011;63484;52.054;8.518;2022-11-21T18:04:37;35.97;;;14.13;;
65715;SDS011;63484;52.054;8.518;2022-11-21T18:09:38;37.23;;;14.67;;
65715;SDS011;63484;52.054;8.518;2022-11-21T18:14:38;36.53;;;13.43;;
65715;SDS011;63484;52.054;8.518;2022-11-21T18:19:38;37.93;;;14.27;;
65715;SDS011;63484;52.054;8.518;2022-11-21T18:24:39;38.00;;;14.67;;
65715;SDS011;63484;52.054;8.518;2022-11-21T18:29:40;39.53;;;14.63;;
65715;SDS011;63484;52.054;8.518;2022-11-21T18:34:40;37.57;;;13.47;;
65715;SDS011;63484;52.054;8.518;2022-11-21T18:39:40;37.17;;;14.63;;
65715;SDS011;63484;52.054;8.518;2022-11-21T18:44:41;46.10;;;15.10;;
65715;SDS011;63484;52.054;8.518;2022-11-21T18:49:41;39.73;;;13.77;;
65715;SDS011;63484;52.054;8.518;2022-11-21T18:54:41;42.43;;;14.40;;
65715;SDS011;63484;52.054;8.518;2022-11-21T18:59:42;41.93;;;14.93;;
65715;SDS011;63484;52.054;8.518;2022-11-21T19:04:42;35.87;;;14.00;;
65715;SDS011;63484;52.054;8.518;2022-11-21T19:09:43;37.20;;;14.03;;
65715;SDS011;63484;52.054;8.518;2022-11-21T19:14:43;38.40;;;14.87;;
65715;SDS011;63484;52.054;8.518;2022-11-21T19:19:43;36.73;;;14.00;;
65715;SDS011;63484;52.054;8.518;2022-11-21T19:24:44;38.73;;;13.73;;
65715;SDS011;63484;52.054;8.518;2022-11-21T19:29:44;39.90;;;13.03;;
65715;SDS011;63484;52.054;8.518;2022-11-21T19:34:45;40.93;;;14.13;;
65715;SDS011;63484;52.054;8.518;2022-11-21T19:39:45;38.80;;;16.07;;
65715;SDS011;63484;52.054;8.518;2022-11-21T19:44:45;39.53;;;13.97;;
65715;SDS011;63484;52.054;8.518;2022-11-21T19:49:46;38.70;;;13.30;;
65715;SDS011;63484;52.054;8.518;2022-11-21T19:54:46;39.40;;;14.23;;
65715;SDS011;63484;52.054;8.518;2022-11-21T19:59:46;32.28;;;13.48;;
65715;SDS011;63484;52.054;8.518;2022-11-21T20:04:47;39.17;;;14.33;;
65715;SDS011;63484;52.054;8.518;2022-11-21T20:09:47;34.40;;;13.07;;
65715;SDS011;63484;52.054;8.518;2022-11-21T20:14:47;36.20;;;14.03;;
65715;SDS011;63484;52.054;8.518;2022-11-21T20:19:48;39.17;;;14.77;;
65715;SDS011;63484;52.054;8.518;2022-11-21T20:24:48;38.40;;;14.03;;
65715;SDS011;63484;52.054;8.518;2022-11-21T20:29:48;36.17;;;13.87;;
65715;SDS011;63484;52.054;8.518;2022-11-21T20:34:49;36.80;;;15.37;;
65715;SDS011;63484;52.054;8.518;2022-11-21T20:39:49;39.67;;;14.43;;
65715;SDS011;63484;52.054;8.518;2022-11-21T20:44:49;39.10;;;14.80;;
65715;SDS011;63484;52.054;8.518;2022-11-21T20:49:50;33.43;;;13.67;;
65715;SDS011;63484;52.054;8.518;2022-11-21T20:54:51;35.07;;;13.93;;
65715;SDS011;63484;52.054;8.518;2022-11-21T20:59:53;32.97;;;13.47;;
65715;SDS011;63484;52.054;8.518;2022-11-21T21:04:53;34.23;;;14.07;;
65715;SDS011;63484;52.054;8.518;2022-11-21T21:09:54;34.97;;;13.20;;
65715;SDS011;63484;52.054;8.518;2022-11-21T21:14:56;31.70;;;13.07;;
65715;SDS011;63484;52.054;8.518;2022-11-21T21:19:56;31.00;;;13.67;;
65715;SDS011;63484;52.054;8.518;2022-11-21T21:24:56;26.83;;;11.97;;
65715;SDS011;63484;52.054;8.518;2022-11-21T21:29:57;30.47;;;12.60;;
65715;SDS011;63484;52.054;8.518;2022-11-21T21:34:57;29.00;;;12.37;;
65715;SDS011;63484;52.054;8.518;2022-11-21T21:39:57;28.83;;;12.10;;
65715;SDS011;63484;52.054;8.518;2022-11-21T21:44:57;28.67;;;12.27;;
65715;SDS011;63484;52.054;8.518;2022-11-21T21:49:58;29.57;;;12.27;;
65715;SDS011;63484;52.054;8.518;2022-11-21T21:54:59;27.70;;;12.53;;
65715;SDS011;63484;52.054;8.518;2022-11-21T21:59:59;28.50;;;12.07;;
65715;SDS011;63484;52.054;8.518;2022-11-21T22:04:59;27.97;;;12.50;;
65715;SDS011;63484;52.054;8.518;2022-11-21T22:10:00;33.47;;;12.57;;
65715;SDS011;63484;52.054;8.518;2022-11-21T22:15:01;30.47;;;13.13;;
65715;SDS011;63484;52.054;8.518;2022-11-21T22:20:02;31.97;;;12.53;;
65715;SDS011;63484;52.054;8.518;2022-11-21T22:25:03;28.50;;;12.10;;
65715;SDS011;63484;52.054;8.518;2022-11-21T22:30:03;26.63;;;12.23;;
65715;SDS011;63484;52.054;8.518;2022-11-21T22:35:04;27.30;;;12.10;;
65715;SDS011;63484;52.054;8.518;2022-11-21T22:40:05;25.53;;;11.30;;
65715;SDS011;63484;52.054;8.518;2022-11-21T22:45:06;25.47;;;11.23;;
65715;SDS011;63484;52.054;8.518;2022-11-21T22:50:07;28.40;;;11.53;;
65715;SDS011;63484;52.054;8.518;2022-11-21T22:55:08;28.20;;;11.63;;
65715;SDS011;63484;52.054;8.518;2022-11-21T23:00:08;25.07;;;11.40;;
65715;SDS011;63484;52.054;8.518;2022-11-21T23:05:09;22.90;;;11.02;;
65715;SDS011;63484;52.054;8.518;2022-11-21T23:10:09;20.47;;;10.47;;
65715;SDS011;63484;52.054;8.518;2022-11-21T23:15:10;23.00;;;10.37;;
65715;SDS011;63484;52.054;8.518;2022-11-21T23:20:10;20.05;;;9.77;;
65715;SDS011;63484;52.054;8.518;2022-11-21T23:25:11;26.10;;;11.33;;
65715;SDS011;63484;52.054;8.518;2022-11-21T23:30:11;21.00;;;10.90;;
65715;SDS011;63484;52.054;8.518;2022-11-21T23:35:12;21.98;;;9.98;;
65715;SDS011;63484;52.054;8.518;2022-11-21T23:40:12;19.27;;;9.63;;
65715;SDS011;63484;52.054;8.518;2022-11-21T23:45:13;23.15;;;10.48;;
65715;SDS011;63484;52.054;8.518;2022-11-21T23:50:14;19.27;;;9.60;;
65715;SDS011;63484;52.054;8.518;2022-11-21T23:55:15;21.25;;;10.20;;
